Time;durP1;ratioP1;P1;durP2;ratioP2;P2;SDS_P1;SDS_P2;PMS_P1;PMS_P2;Temp;Humidity;BMP_temperature;BMP_pressure;BME280_temperature;BME280_humidity;BME280_pressure;Samples;Min_cycle;Max_cycle;Signal;HPM_P1;HPM_P2
2024/04/26 00:00:50;;;;;;;;;;;;;;;15.82;49.81;100073.41;5388134;26;1279;-61
2024/04/26 00:03:17;;;;;;;;;;;;;;;15.71;48.60;100075.34;5387537;26;1863;-61
2024/04/26 00:05:42;;;;;;;;;;;;;;;15.64;48.04;100077.59;5387702;26;1255;-61
2024/04/26 00:08:08;;;;;;;;;;;;;;;15.53;47.60;100081.50;5387652;26;1179;-63
2024/04/26 00:10:33;;;;;;;;;;;;;;;16.49;49.24;100077.47;5387981;26;1066;-62
2024/04/26 00:12:59;;;;;;;;;;;;;;;15.90;49.48;100091.16;5387635;26;1510;-62
2024/04/26 00:15:24;;;;;;;;;;;;;;;15.70;48.68;100087.41;5387302;26;1120;-63
2024/04/26 00:17:50;;;;;;;;;;;;;;;15.60;48.02;100084.75;5387309;26;1279;-62
2024/04/26 00:20:15;;;;;;;;;;;;;;;16.23;48.83;100085.97;5387330;26;1140;-64
2024/04/26 00:22:41;;;;;;;;;;;;;;;15.99;49.35;100080.38;5387065;26;1869;-64
2024/04/26 00:25:06;;;;;;;;;;;;;;;15.71;48.81;100080.00;5387832;26;1325;-63
2024/04/26 00:27:32;;;;;;;;;;;;;;;15.63;47.95;100078.69;5387138;26;1294;-64
2024/04/26 00:29:57;;;;;;;;;;;;;;;15.55;47.50;100073.81;5387236;26;1482;-64
2024/04/26 00:32:23;;;;;;;;;;;;;;;15.49;47.04;100078.50;5387019;26;1311;-64
2024/04/26 00:34:49;;;;;;;;;;;;;;;15.35;46.99;100083.78;5386586;26;997;-64
2024/04/26 00:37:15;;;;;;;;;;;;;;;15.37;46.69;100087.06;5387616;26;1245;-64
2024/04/26 00:39:40;;;;;;;;;;;;;;;15.33;46.53;100093.38;5386988;26;1266;-64
2024/04/26 00:42:06;;;;;;;;;;;;;;;15.25;46.34;100108.50;5387182;26;1362;-65
2024/04/26 00:44:31;;;;;;;;;;;;;;;15.22;46.27;100104.41;5387114;26;1822;-63
2024/04/26 00:46:57;;;;;;;;;;;;;;;15.22;46.06;100104.41;5386754;26;1306;-64
2024/04/26 00:49:22;;;;;;;;;;;;;;;15.17;46.25;100109.91;5356002;26;1236;-62
2024/04/26 00:51:48;;;;;;;;;;;;;;;15.09;46.21;100098.72;5386937;26;1171;-63
2024/04/26 00:54:14;;;;;;;;;;;;;;;15.90;47.46;100102.13;5386223;26;1188;-63
2024/04/26 00:56:39;;;;;;;;;;;;;;;15.88;49.27;100112.56;5387060;26;1275;-63
2024/04/26 00:59:05;;;;;;;;;;;;;;;15.48;48.71;100107.00;5386453;26;1127;-61
2024/04/26 01:01:30;;;;;;;;;;;;;;;15.36;48.16;100109.25;5387275;26;1156;-63
2024/04/26 01:03:56;;;;;;;;;;;;;;;15.28;47.52;100121.63;5356134;26;1853;-63
2024/04/26 01:06:21;;;;;;;;;;;;;;;15.21;47.03;100113.72;5386718;26;1295;-62
2024/04/26 01:08:47;;;;;;;;;;;;;;;15.19;46.91;100123.31;5386622;26;1143;-62
2024/04/26 01:11:13;;;;;;;;;;;;;;;16.18;48.70;100122.47;5386508;26;1282;-61
2024/04/26 01:13:38;;;;;;;;;;;;;;;15.60;48.98;100128.59;5355499;26;1332;-62
2024/04/26 01:16:04;;;;;;;;;;;;;;;15.44;48.30;100124.31;5387258;26;1355;-62
2024/04/26 01:18:30;;;;;;;;;;;;;;;15.35;47.62;100122.16;5386853;26;1278;-62
2024/04/26 01:20:56;;;;;;;;;;;;;;;15.27;47.43;100130.13;5386626;26;1262;-61
2024/04/26 01:23:22;;;;;;;;;;;;;;;15.24;46.91;100128.78;5386444;26;1875;-61
2024/04/26 01:25:56;;;;;;;;;;;;;;;16.23;48.18;100124.38;5326889;26;1275;-61
2024/04/26 01:28:22;;;;;;;;;;;;;;;15.63;49.38;100136.25;5386547;26;1242;-61
2024/04/26 01:30:47;;;;;;;;;;;;;;;15.45;48.63;100140.44;5386444;26;1286;-64
2024/04/26 01:33:13;;;;;;;;;;;;;;;15.42;47.71;100140.19;5385944;26;1100;-63
2024/04/26 01:35:38;;;;;;;;;;;;;;;15.29;47.39;100139.72;5385154;26;1056;-62
2024/04/26 01:38:04;;;;;;;;;;;;;;;15.18;47.16;100132.63;5386439;26;1370;-64
2024/04/26 01:40:29;;;;;;;;;;;;;;;15.21;46.70;100132.06;5386082;26;1290;-63
2024/04/26 01:42:55;;;;;;;;;;;;;;;15.16;46.42;100135.63;5386005;26;1858;-64
2024/04/26 01:45:20;;;;;;;;;;;;;;;15.85;47.60;100135.88;5386598;26;1240;-64
2024/04/26 01:47:46;;;;;;;;;;;;;;;16.03;49.27;100136.28;5386344;26;1147;-63
2024/04/26 01:50:11;;;;;;;;;;;;;;;15.60;49.05;100128.59;5385518;26;1251;-63
2024/04/26 01:52:37;;;;;;;;;;;;;;;15.44;48.35;100127.03;5386292;26;1172;-63
2024/04/26 01:55:03;;;;;;;;;;;;;;;15.38;47.56;100131.72;5385539;26;1335;-63
2024/04/26 01:57:28;;;;;;;;;;;;;;;15.26;47.29;100139.44;5386357;26;1176;-62
2024/04/26 01:59:54;;;;;;;;;;;;;;;16.06;48.55;100141.19;5385903;26;1196;-63
2024/04/26 02:02:19;;;;;;;;;;;;;;;15.55;48.92;100147.81;5385196;26;1172;-62
2024/04/26 02:04:44;;;;;;;;;;;;;;;15.43;48.10;100150.88;5385608;26;1837;-65
2024/04/26 02:07:10;;;;;;;;;;;;;;;15.31;47.65;100156.69;5386083;26;1180;-65
2024/04/26 02:09:35;;;;;;;;;;;;;;;15.26;47.22;100155.88;5385977;26;1190;-66
2024/04/26 02:12:01;;;;;;;;;;;;;;;16.03;48.09;100163.72;5385345;26;1104;-66
2024/04/26 02:14:27;;;;;;;;;;;;;;;15.86;49.63;100161.38;5385042;26;1600;-66
2024/04/26 02:16:55;;;;;;;;;;;;;;;15.50;48.94;100161.53;5385858;26;1292;-66
2024/04/26 02:19:24;;;;;;;;;;;;;;;15.40;48.13;100165.13;5385745;26;1247;-66
2024/04/26 02:21:49;;;;;;;;;;;;;;;15.80;48.62;100162.50;5385472;26;1278;-66
2024/04/26 02:24:15;;;;;;;;;;;;;;;15.64;49.43;100168.06;5385457;26;1870;-63
2024/04/26 02:26:40;;;;;;;;;;;;;;;15.43;48.58;100164.59;5385933;26;1251;-63
2024/04/26 02:29:06;;;;;;;;;;;;;;;15.44;47.84;100168.13;5385740;26;1208;-63
2024/04/26 02:31:31;;;;;;;;;;;;;;;16.32;48.68;100166.53;5385671;26;1250;-64
2024/04/26 02:33:57;;;;;;;;;;;;;;;15.90;49.48;100176.16;5385406;26;1160;-64
2024/04/26 02:36:22;;;;;;;;;;;;;;;15.64;48.71;100179.00;5385008;26;1086;-64
2024/04/26 02:38:48;;;;;;;;;;;;;;;15.56;47.94;100176.84;5385453;26;1173;-65
2024/04/26 02:41:14;;;;;;;;;;;;;;;15.46;47.61;100183.19;5385426;26;1287;-62
2024/04/26 02:43:40;;;;;;;;;;;;;;;15.41;47.08;100185.94;5385114;26;1869;-62
2024/04/26 02:46:08;;;;;;;;;;;;;;;16.31;48.59;100192.31;5385557;26;1572;-62
2024/04/26 02:48:34;;;;;;;;;;;;;;;15.70;49.13;100199.00;5385098;26;1176;-61
2024/04/26 02:50:59;;;;;;;;;;;;;;;15.54;48.54;100200.97;5385603;26;1199;-61
2024/04/26 02:53:25;;;;;;;;;;;;;;;15.50;47.84;100205.38;5384482;26;1168;-62
2024/04/26 02:55:50;;;;;;;;;;;;;;;16.32;49.20;100199.44;5385056;26;1289;-62
2024/04/26 02:58:16;;;;;;;;;;;;;;;15.78;49.32;100200.31;5385451;26;1188;-62
2024/04/26 03:00:41;;;;;;;;;;;;;;;15.61;48.42;100206.16;5384952;26;1132;-62
2024/04/26 03:03:07;;;;;;;;;;;;;;;15.55;47.74;100194.38;5385113;26;1822;-61
2024/04/26 03:05:32;;;;;;;;;;;;;;;15.42;47.24;100204.03;5385229;26;1184;-62
2024/04/26 03:07:58;;;;;;;;;;;;;;;15.60;47.34;100207.25;5385121;26;1275;-63
2024/04/26 03:10:23;;;;;;;;;;;;;;;16.07;48.84;100212.25;5385164;26;1294;-63
2024/04/26 03:12:49;;;;;;;;;;;;;;;15.62;48.79;100210.53;5383844;26;1067;-63
2024/04/26 03:15:14;;;;;;;;;;;;;;;15.61;47.78;100222.59;5387289;26;1175;-63
2024/04/26 03:17:41;;;;;;;;;;;;;;;15.46;47.36;100213.34;5388236;26;1176;-63
2024/04/26 03:20:07;;;;;;;;;;;;;;;15.42;47.10;100230.59;5388608;26;1267;-61
2024/04/26 03:22:32;;;;;;;;;;;;;;;15.39;46.54;100234.75;5388098;26;1829;-64
2024/04/26 03:24:58;;;;;;;;;;;;;;;15.25;46.40;100229.03;5387572;26;1133;-66
2024/04/26 03:27:23;;;;;;;;;;;;;;;15.28;46.17;100244.06;5388003;26;1365;-65
2024/04/26 03:29:49;;;;;;;;;;;;;;;15.22;46.07;100238.59;5388474;26;1199;-65
2024/04/26 03:32:14;;;;;;;;;;;;;;;15.33;46.43;100242.16;5388074;26;1165;-65
2024/04/26 03:34:40;;;;;;;;;;;;;;;16.32;48.51;100253.50;5386545;26;1475;-62
2024/04/26 03:37:05;;;;;;;;;;;;;;;15.71;48.74;100256.28;5388379;26;1063;-60
2024/04/26 03:39:31;;;;;;;;;;;;;;;15.50;48.23;100266.47;5388208;26;1290;-63
2024/04/26 03:41:57;;;;;;;;;;;;;;;16.47;49.16;100266.31;5388279;26;1140;-64
2024/04/26 03:44:22;;;;;;;;;;;;;;;15.81;49.29;100260.06;5388080;26;1861;-64
2024/04/26 03:46:48;;;;;;;;;;;;;;;15.66;48.51;100267.25;5388298;26;3170;-66
2024/04/26 03:49:13;;;;;;;;;;;;;;;15.57;47.87;100277.13;5387490;26;1317;-63
2024/04/26 03:51:39;;;;;;;;;;;;;;;15.43;47.57;100278.81;5388096;26;1173;-61
2024/04/26 03:54:04;;;;;;;;;;;;;;;15.42;47.17;100288.13;5387197;26;1187;-63
2024/04/26 03:56:30;;;;;;;;;;;;;;;15.35;46.67;100285.69;5387731;26;969;-62
2024/04/26 03:58:55;;;;;;;;;;;;;;;16.06;47.95;100284.66;5387836;26;1197;-62
2024/04/26 04:01:21;;;;;;;;;;;;;;;15.89;48.96;100284.19;5387574;26;1059;-64
2024/04/26 04:03:46;;;;;;;;;;;;;;;16.11;48.51;100293.97;5387230;26;1814;-63
2024/04/26 04:06:12;;;;;;;;;;;;;;;16.23;48.62;100288.97;5387549;26;1268;-62
2024/04/26 04:08:37;;;;;;;;;;;;;;;15.79;49.75;100303.38;5386986;26;1232;-62
2024/04/26 04:11:03;;;;;;;;;;;;;;;15.55;50.50;100302.06;5387525;26;1319;-62
2024/04/26 04:13:28;;;;;;;;;;;;;;;16.47;48.81;100318.47;5386887;26;1176;-61
2024/04/26 04:15:54;;;;;;;;;;;;;;;17.40;46.66;100305.66;5387036;26;2916;-60
2024/04/26 04:18:20;;;;;;;;;;;;;;;16.40;48.98;100327.81;5387559;26;1278;-61
2024/04/26 04:20:46;;;;;;;;;;;;;;;16.04;50.00;100324.44;5387325;26;1716;-59
2024/04/26 04:23:11;;;;;;;;;;;;;;;15.82;50.88;100316.56;5387200;26;1825;-59
2024/04/26 04:25:37;;;;;;;;;;;;;;;16.32;49.84;100316.63;5385685;26;1219;-60
2024/04/26 04:28:05;;;;;;;;;;;;;;;17.64;46.68;100321.31;5386893;26;1181;-60
2024/04/26 04:30:31;;;;;;;;;;;;;;;16.65;49.32;100323.28;5387445;26;1179;-58
2024/04/26 04:32:57;;;;;;;;;;;;;;;16.23;50.41;100324.63;5387393;26;1389;-59
2024/04/26 04:35:23;;;;;;;;;;;;;;;16.01;51.15;100320.31;5356132;26;1414;-61
2024/04/26 04:37:48;;;;;;;;;;;;;;;16.45;50.35;100326.16;5386722;26;1048;-59
2024/04/26 04:40:14;;;;;;;;;;;;;;;17.56;47.38;100330.22;5387040;26;1220;-59
2024/04/26 04:42:39;;;;;;;;;;;;;;;16.63;49.87;100333.69;5386512;26;1833;-58
2024/04/26 04:45:05;;;;;;;;;;;;;;;16.27;50.92;100327.59;5386618;26;1205;-59
2024/04/26 04:47:30;;;;;;;;;;;;;;;16.04;51.42;100325.25;5387315;26;3128;-57
2024/04/26 04:49:56;;;;;;;;;;;;;;;15.86;52.04;100331.34;5386891;26;1091;-59
2024/04/26 04:52:21;;;;;;;;;;;;;;;16.49;50.94;100329.97;5386575;26;1246;-58
2024/04/26 04:54:47;;;;;;;;;;;;;;;17.66;47.87;100335.59;5386832;26;1255;-55
2024/04/26 04:57:12;;;;;;;;;;;;;;;16.65;50.37;100334.25;5387016;26;1212;-56
2024/04/26 04:59:40;;;;;;;;;;;;;;;16.25;51.59;100334.19;5386976;26;1282;-57
2024/04/26 05:02:06;;;;;;;;;;;;;;;16.06;52.11;100339.50;5386479;26;1189;-56
2024/04/26 05:04:31;;;;;;;;;;;;;;;15.88;52.44;100340.13;5385934;26;1830;-57
2024/04/26 05:06:57;;;;;;;;;;;;;;;15.95;52.59;100343.41;5386527;26;1136;-58
2024/04/26 05:09:22;;;;;;;;;;;;;;;17.52;48.79;100356.66;5386874;26;1255;-62
2024/04/26 05:11:48;;;;;;;;;;;;;;;17.01;49.83;100350.50;5386279;26;1235;-61
2024/04/26 05:14:13;;;;;;;;;;;;;;;16.43;51.58;100354.69;5386612;26;1351;-61
2024/04/26 05:16:39;;;;;;;;;;;;;;;16.19;52.25;100349.03;5386625;26;2625;-64
2024/04/26 05:19:04;;;;;;;;;;;;;;;16.02;52.61;100351.28;5386648;26;1234;-62
2024/04/26 05:21:30;;;;;;;;;;;;;;;15.84;53.07;100353.56;5384741;26;1667;-62
2024/04/26 05:23:55;;;;;;;;;;;;;;;17.15;50.15;100352.59;5354956;26;1848;-62
2024/04/26 05:26:21;;;;;;;;;;;;;;;17.03;50.28;100350.22;5386497;26;1235;-62
2024/04/26 05:28:46;;;;;;;;;;;;;;;16.39;51.91;100350.06;5386104;26;1212;-61
2024/04/26 05:31:12;;;;;;;;;;;;;;;16.15;52.70;100363.63;5385520;26;1697;-62
2024/04/26 05:33:38;;;;;;;;;;;;;;;16.00;53.27;100359.81;5386051;26;1083;-65
2024/04/26 05:36:04;;;;;;;;;;;;;;;15.95;53.44;100372.72;5385262;26;1622;-63
2024/04/26 05:38:30;;;;;;;;;;;;;;;17.50;49.74;100376.19;5383223;26;1350;-63
2024/04/26 05:40:55;;;;;;;;;;;;;;;17.19;50.29;100370.13;5386345;26;1285;-63
2024/04/26 05:43:20;;;;;;;;;;;;;;;16.52;52.05;100374.13;5385355;26;1860;-63
2024/04/26 05:45:46;;;;;;;;;;;;;;;16.25;52.81;100374.53;5386589;26;2848;-61
2024/04/26 05:48:11;;;;;;;;;;;;;;;16.11;53.23;100384.47;5385233;26;1313;-61
2024/04/26 05:50:37;;;;;;;;;;;;;;;15.93;53.67;100377.69;5386200;26;1248;-57
2024/04/26 05:53:03;;;;;;;;;;;;;;;15.87;53.72;100380.41;5385423;26;1471;-60
2024/04/26 05:55:28;;;;;;;;;;;;;;;16.47;52.77;100385.13;5347566;26;1318;-60
2024/04/26 05:57:53;;;;;;;;;;;;;;;17.76;49.37;100386.91;5386408;26;1374;-60
2024/04/26 06:00:19;;;;;;;;;;;;;;;16.78;51.79;100387.72;5385581;26;1393;-60
2024/04/26 06:02:47;;;;;;;;;;;;;;;16.34;53.04;100385.75;5385728;26;1857;-60
2024/04/26 06:05:13;;;;;;;;;;;;;;;16.13;53.54;100385.00;5384860;26;1727;-58
2024/04/26 06:07:39;;;;;;;;;;;;;;;16.00;53.68;100379.00;5385698;26;1172;-57
2024/04/26 06:10:06;;;;;;;;;;;;;;;16.06;53.75;100377.91;5385584;26;1084;-58
2024/04/26 06:12:32;;;;;;;;;;;;;;;17.59;50.31;100388.19;5384798;26;1268;-61
2024/04/26 06:14:58;;;;;;;;;;;;;;;17.14;51.10;100386.66;5384021;26;1562;-64
2024/04/26 06:17:25;;;;;;;;;;;;;;;16.60;52.76;100397.41;5385919;26;2680;-57
2024/04/26 06:19:51;;;;;;;;;;;;;;;16.30;53.49;100398.38;5384676;26;1374;-57
2024/04/26 06:22:16;;;;;;;;;;;;;;;16.14;53.65;100400.38;5385743;26;1301;-61
2024/04/26 06:24:42;;;;;;;;;;;;;;;16.00;54.05;100400.13;5383828;26;1845;-59
2024/04/26 06:27:07;;;;;;;;;;;;;;;15.92;54.02;100393.28;5385582;26;1303;-57
2024/04/26 06:29:33;;;;;;;;;;;;;;;17.05;52.02;100411.97;5385005;26;1316;-60
2024/04/26 06:32:03;;;;;;;;;;;;;;;17.56;50.43;100412.69;5385293;26;1227;-58
2024/04/26 06:34:29;;;;;;;;;;;;;;;16.67;52.78;100408.09;5384939;26;1505;-57
2024/04/26 06:36:55;;;;;;;;;;;;;;;16.32;53.66;100407.97;5384473;26;1773;-57
2024/04/26 06:39:20;;;;;;;;;;;;;;;16.16;53.83;100409.13;5384954;26;1281;-64
2024/04/26 06:41:46;;;;;;;;;;;;;;;16.00;54.32;100400.94;5384806;26;1513;-58
2024/04/26 06:44:11;;;;;;;;;;;;;;;15.91;54.38;100410.84;5385241;26;1826;-60
2024/04/26 06:46:37;;;;;;;;;;;;;;;15.82;54.60;100415.25;5384224;26;2307;-57
2024/04/26 06:49:02;;;;;;;;;;;;;;;17.17;51.98;100419.06;5383140;26;1308;-56
2024/04/26 06:51:28;;;;;;;;;;;;;;;17.43;51.04;100423.25;5384780;26;1433;-56
2024/04/26 06:53:53;;;;;;;;;;;;;;;16.63;53.01;100424.28;5385001;26;1297;-56
2024/04/26 06:56:19;;;;;;;;;;;;;;;16.34;54.02;100437.88;5385377;26;1254;-56
2024/04/26 06:58:44;;;;;;;;;;;;;;;16.16;54.15;100437.41;5385183;26;1274;-56
2024/04/26 07:01:10;;;;;;;;;;;;;;;16.05;54.39;100436.59;5384575;26;1366;-56
2024/04/26 07:03:41;;;;;;;;;;;;;;;15.92;54.68;100437.16;5383112;26;1881;-56
2024/04/26 07:06:07;;;;;;;;;;;;;;;15.97;54.84;100445.38;5384651;26;1100;-56
2024/04/26 07:08:33;;;;;;;;;;;;;;;17.49;51.54;100429.53;5384315;26;1338;-66
2024/04/26 07:10:58;;;;;;;;;;;;;;;17.18;52.04;100450.91;5384787;26;1326;-68
2024/04/26 07:13:24;;;;;;;;;;;;;;;16.60;53.63;100446.81;5348179;26;1525;-66
2024/04/26 07:15:49;;;;;;;;;;;;;;;16.36;54.28;100444.72;5384295;26;2310;-66
2024/04/26 07:18:15;;;;;;;;;;;;;;;16.14;54.59;100436.84;5385389;26;1440;-66
2024/04/26 07:20:40;;;;;;;;;;;;;;;16.01;54.81;100446.47;5385253;26;1418;-67
2024/04/26 07:23:06;;;;;;;;;;;;;;;15.89;55.03;100444.03;5384811;26;1872;-65
2024/04/26 07:25:31;;;;;;;;;;;;;;;15.85;55.07;100453.91;5383451;26;1625;-69
2024/04/26 07:27:57;;;;;;;;;;;;;;;15.89;55.23;100454.16;5384693;26;1432;-69
2024/04/26 07:30:22;;;;;;;;;;;;;;;17.36;52.34;100460.41;5384492;26;1497;-68
2024/04/26 07:32:48;;;;;;;;;;;;;;;17.14;52.62;100447.09;5384490;26;1303;-68
2024/04/26 07:35:13;;;;;;;;;;;;;;;16.50;54.25;100458.66;5383243;26;1809;-67
2024/04/26 07:37:39;;;;;;;;;;;;;;;16.22;54.83;100462.88;5383993;26;1250;-68
2024/04/26 07:40:04;;;;;;;;;;;;;;;16.13;54.85;100459.06;5384452;26;1402;-68
2024/04/26 07:42:30;;;;;;;;;;;;;;;16.00;55.21;100465.94;5384092;26;1830;-67
2024/04/26 07:44:55;;;;;;;;;;;;;;;16.67;54.18;100468.50;5384270;26;1405;-64
2024/04/26 07:47:22;;;;;;;;;;;;;;;17.82;50.91;100467.44;5353699;26;3187;-67
2024/04/26 07:49:50;;;;;;;;;;;;;;;16.81;53.64;100458.53;5383743;26;1363;-68
2024/04/26 07:52:16;;;;;;;;;;;;;;;16.48;54.28;100468.28;5384159;26;1306;-66
2024/04/26 07:54:41;;;;;;;;;;;;;;;16.22;54.93;100473.88;5384517;26;1183;-66
2024/04/26 07:57:08;;;;;;;;;;;;;;;16.08;55.10;100468.94;5384273;26;1355;-64
2024/04/26 07:59:34;;;;;;;;;;;;;;;15.98;55.14;100468.16;5384202;26;1179;-66
2024/04/26 08:01:59;;;;;;;;;;;;;;;16.87;53.73;100473.03;5349146;26;1236;-64
2024/04/26 08:04:25;;;;;;;;;;;;;;;17.60;51.74;100466.81;5381537;26;1826;-62
2024/04/26 08:06:50;;;;;;;;;;;;;;;16.70;53.93;100465.97;5386143;26;1568;-64
2024/04/26 08:09:16;;;;;;;;;;;;;;;16.38;54.71;100467.22;5387048;26;1180;-62
2024/04/26 08:11:42;;;;;;;;;;;;;;;16.21;55.01;100466.72;5387555;26;1172;-64
2024/04/26 08:14:07;;;;;;;;;;;;;;;16.07;55.16;100483.78;5387242;26;1246;-62
2024/04/26 08:16:33;;;;;;;;;;;;;;;16.04;55.17;100481.56;5387548;26;2995;-64
2024/04/26 08:18:58;;;;;;;;;;;;;;;15.91;55.45;100476.66;5387180;26;1358;-64
2024/04/26 08:21:24;;;;;;;;;;;;;;;17.35;52.78;100488.97;5387453;26;1345;-63
2024/04/26 08:23:55;;;;;;;;;;;;;;;17.40;52.27;100489.78;5387506;26;1894;-64
2024/04/26 08:26:20;;;;;;;;;;;;;;;16.71;54.10;100500.59;5386872;26;1422;-65
2024/04/26 08:28:46;;;;;;;;;;;;;;;16.43;54.63;100491.09;5387035;26;1191;-65
2024/04/26 08:31:11;;;;;;;;;;;;;;;16.26;54.93;100496.91;5387196;26;1350;-65
2024/04/26 08:33:37;;;;;;;;;;;;;;;16.18;54.84;100502.94;5387328;26;1235;-66
2024/04/26 08:36:02;;;;;;;;;;;;;;;16.03;55.10;100501.88;5386695;26;1604;-66
2024/04/26 08:38:28;;;;;;;;;;;;;;;15.87;55.39;100500.25;5386912;26;1247;-65
2024/04/26 08:40:53;;;;;;;;;;;;;;;16.63;54.48;100501.16;5387148;26;1144;-66
2024/04/26 08:43:19;;;;;;;;;;;;;;;17.86;51.62;100509.78;5387441;26;1833;-65
2024/04/26 08:45:45;;;;;;;;;;;;;;;17.01;53.55;100501.59;5387148;26;2968;-66
2024/04/26 08:48:11;;;;;;;;;;;;;;;16.60;54.57;100496.22;5386827;26;1188;-65
2024/04/26 08:50:37;;;;;;;;;;;;;;;16.33;55.15;100507.59;5386335;26;1149;-65
2024/04/26 08:53:07;;;;;;;;;;;;;;;16.22;55.24;100512.28;5387094;26;1168;-66
2024/04/26 08:55:35;;;;;;;;;;;;;;;16.11;55.30;100511.47;5386285;26;1140;-64
2024/04/26 08:58:01;;;;;;;;;;;;;;;16.00;55.28;100510.66;5386882;26;1227;-67
2024/04/26 09:00:28;;;;;;;;;;;;;;;15.92;55.48;100524.91;5356302;26;1299;-67
2024/04/26 09:02:53;;;;;;;;;;;;;;;16.12;55.45;100518.59;5386337;26;1875;-67
2024/04/26 09:05:20;;;;;;;;;;;;;;;17.54;52.72;100511.13;5355788;26;1335;-67
2024/04/26 09:07:45;;;;;;;;;;;;;;;17.05;53.55;100512.81;5386638;26;1262;-67
2024/04/26 09:10:11;;;;;;;;;;;;;;;16.55;54.81;100508.06;5386580;26;1219;-66
2024/04/26 09:12:36;;;;;;;;;;;;;;;16.29;55.30;100512.81;5386220;26;1164;-64
2024/04/26 09:15:02;;;;;;;;;;;;;;;16.18;55.49;100512.00;5385513;26;1228;-68
2024/04/26 09:17:28;;;;;;;;;;;;;;;16.08;55.29;100507.34;5387320;26;3059;-68
2024/04/26 09:19:55;;;;;;;;;;;;;;;15.98;55.62;100510.09;5386609;26;1138;-67
2024/04/26 09:22:22;;;;;;;;;;;;;;;15.89;55.61;100515.34;5386624;26;1266;-65
2024/04/26 09:24:48;;;;;;;;;;;;;;;16.79;54.50;100510.16;5386174;26;1853;-66
2024/04/26 09:27:13;;;;;;;;;;;;;;;17.81;52.09;100518.91;5386166;26;945;-65
2024/04/26 09:29:39;;;;;;;;;;;;;;;16.84;54.35;100512.06;5344358;26;1559;-66
2024/04/26 09:32:05;;;;;;;;;;;;;;;16.52;54.94;100510.53;5373607;26;1259;-65
2024/04/26 09:34:33;;;;;;;;;;;;;;;16.38;55.19;100518.53;5385489;26;1434;-63
2024/04/26 09:36:59;;;;;;;;;;;;;;;16.16;55.41;100510.63;5380416;26;1460;-63
2024/04/26 09:39:25;;;;;;;;;;;;;;;16.04;55.46;100513.66;5379693;26;1731;-66
2024/04/26 09:41:50;;;;;;;;;;;;;;;15.93;55.63;100510.09;5389662;26;1516;-65
2024/04/26 09:44:16;;;;;;;;;;;;;;;16.64;54.94;100511.03;5373392;26;1822;-66
2024/04/26 09:46:41;;;;;;;;;;;;;;;17.78;52.20;100520.28;5372758;26;2833;-64
2024/04/26 09:49:07;;;;;;;;;;;;;;;16.85;54.48;100519.22;5372489;26;1334;-65
2024/04/26 09:51:33;;;;;;;;;;;;;;;16.50;55.17;100523.72;5349969;26;1763;-65
2024/04/26 09:53:58;;;;;;;;;;;;;;;16.32;55.36;100522.41;5376953;26;1353;-63
2024/04/26 09:56:24;;;;;;;;;;;;;;;16.08;55.83;100512.03;5354650;26;1469;-66
2024/04/26 09:58:49;;;;;;;;;;;;;;;16.01;55.75;100516.97;5386216;26;1263;-66
2024/04/26 10:01:15;;;;;;;;;;;;;;;15.96;55.77;100525.19;5383377;26;1204;-65
2024/04/26 10:03:41;;;;;;;;;;;;;;;15.91;56.13;100526.03;5382711;26;1860;-66
2024/04/26 10:06:12;;;;;;;;;;;;;;;17.36;53.57;100524.44;5385755;26;1116;-67
2024/04/26 10:08:38;;;;;;;;;;;;;;;17.26;53.53;100522.59;5385973;26;1140;-66
2024/04/26 10:11:10;;;;;;;;;;;;;;;16.62;55.00;100516.00;5383441;26;1213;-68
2024/04/26 10:13:45;;;;;;;;;;;;;;;16.43;55.43;100526.75;5385557;26;1243;-68
2024/04/26 10:16:11;;;;;;;;;;;;;;;16.22;55.71;100526.78;5379863;26;2832;-67
2024/04/26 10:18:39;;;;;;;;;;;;;;;16.10;55.67;100523.53;5385657;26;1287;-66
2024/04/26 10:21:05;;;;;;;;;;;;;;;16.08;55.57;100531.22;5386060;26;1326;-65
2024/04/26 10:23:32;;;;;;;;;;;;;;;16.80;54.99;100513.72;5384895;26;1825;-67
2024/04/26 10:26:10;;;;;;;;;;;;;;;17.74;52.65;100523.88;5383014;26;1721;-64
2024/04/26 10:28:35;;;;;;;;;;;;;;;16.79;54.79;100526.66;5368337;26;1234;-66
2024/04/26 10:31:01;;;;;;;;;;;;;;;16.49;55.52;100533.06;5385536;26;1313;-65
2024/04/26 10:33:31;;;;;;;;;;;;;;;16.36;55.48;100524.31;5386432;26;1187;-66
2024/04/26 10:36:04;;;;;;;;;;;;;;;16.19;55.64;100526.53;5383348;26;1562;-60
2024/04/26 10:38:39;;;;;;;;;;;;;;;16.14;55.54;100526.53;5382822;26;1069;-59
2024/04/26 10:41:04;;;;;;;;;;;;;;;15.99;55.80;100528.22;5379430;26;1402;-58
2024/04/26 10:43:30;;;;;;;;;;;;;;;16.13;56.02;100530.38;5379173;26;1855;-58
2024/04/26 10:45:56;;;;;;;;;;;;;;;17.54;53.42;100525.69;5377990;26;2813;-58
2024/04/26 10:48:22;;;;;;;;;;;;;;;17.10;54.14;100523.78;5380974;26;1260;-57
2024/04/26 10:50:47;;;;;;;;;;;;;;;16.61;55.29;100525.34;5371768;26;1382;-58
2024/04/26 10:53:13;;;;;;;;;;;;;;;16.37;55.60;100541.59;5375235;26;1404;-58
2024/04/26 10:55:39;;;;;;;;;;;;;;;16.23;55.88;100527.63;5369924;26;1326;-58
2024/04/26 10:58:05;;;;;;;;;;;;;;;16.12;55.67;100528.72;5377865;26;1872;-57
2024/04/26 11:00:39;;;;;;;;;;;;;;;16.02;55.92;100535.88;5384704;26;1313;-59
2024/04/26 11:03:11;;;;;;;;;;;;;;;15.92;55.96;100549.59;5369162;26;1833;-58
2024/04/26 11:05:43;;;;;;;;;;;;;;;16.54;55.70;100541.28;5381969;26;1317;-60
2024/04/26 11:08:09;;;;;;;;;;;;;;;17.80;52.78;100555.75;5377682;26;1591;-58
2024/04/26 11:10:35;;;;;;;;;;;;;;;16.94;54.85;100550.50;5362874;26;1317;-59
2024/04/26 11:13:00;;;;;;;;;;;;;;;16.54;55.57;100552.25;5356705;26;1278;-59
2024/04/26 11:15:26;;;;;;;;;;;;;;;16.29;55.99;100548.47;5364326;26;2815;-58
2024/04/26 11:17:51;;;;;;;;;;;;;;;16.18;55.97;100552.31;5371712;26;1575;-58
2024/04/26 11:20:17;;;;;;;;;;;;;;;16.07;56.02;100548.75;5371720;26;1230;-59
2024/04/26 11:22:42;;;;;;;;;;;;;;;16.55;55.85;100546.50;5384541;26;1830;-60
2024/04/26 11:25:08;;;;;;;;;;;;;;;17.77;53.03;100557.13;5384839;26;1141;-60
2024/04/26 11:27:33;;;;;;;;;;;;;;;16.91;55.06;100567.53;5384641;26;1124;-57
2024/04/26 11:29:59;;;;;;;;;;;;;;;16.55;55.88;100567.63;5385005;26;1314;-57
2024/04/26 11:32:24;;;;;;;;;;;;;;;16.37;55.86;100566.31;5385132;26;1337;-58
2024/04/26 11:34:50;;;;;;;;;;;;;;;16.23;55.86;100563.31;5384452;26;1647;-58
2024/04/26 11:37:15;;;;;;;;;;;;;;;16.08;56.00;100556.72;5386631;26;1648;-59
2024/04/26 11:39:41;;;;;;;;;;;;;;;15.97;56.17;100566.03;5387671;26;1159;-60
2024/04/26 11:42:06;;;;;;;;;;;;;;;17.28;54.48;100574.53;5386120;26;1310;-60
2024/04/26 11:44:32;;;;;;;;;;;;;;;17.40;53.85;100576.91;5351394;26;1826;-59
2024/04/26 11:46:57;;;;;;;;;;;;;;;16.72;55.35;100573.63;5382629;26;2813;-59
2024/04/26 11:49:25;;;;;;;;;;;;;;;16.49;55.82;100576.97;5387686;26;1212;-59
2024/04/26 11:51:52;;;;;;;;;;;;;;;16.31;56.02;100581.13;5387168;26;1175;-58
2024/04/26 11:54:17;;;;;;;;;;;;;;;16.17;55.98;100578.09;5386293;26;1569;-57
2024/04/26 11:56:43;;;;;;;;;;;;;;;16.05;56.03;100579.22;5387394;26;1014;-57
2024/04/26 11:59:09;;;;;;;;;;;;;;;16.00;56.04;100575.66;5387478;26;1141;-58
2024/04/26 12:01:34;;;;;;;;;;;;;;;17.00;55.10;100570.50;5388022;26;1190;-60
2024/04/26 12:04:00;;;;;;;;;;;;;;;17.44;53.89;100580.72;5386741;26;1859;-59
2024/04/26 12:06:26;;;;;;;;;;;;;;;16.74;55.55;100581.56;5386620;26;1483;-61
2024/04/26 12:08:51;;;;;;;;;;;;;;;16.40;56.30;100574.78;5387377;26;1073;-61
2024/04/26 12:11:17;;;;;;;;;;;;;;;16.22;56.23;100580.84;5387230;26;1524;-57
2024/04/26 12:13:45;;;;;;;;;;;;;;;16.16;56.08;100581.94;5387484;26;1269;-58
2024/04/26 12:16:10;;;;;;;;;;;;;;;16.02;56.09;100585.25;5386960;26;2846;-59
2024/04/26 12:18:38;;;;;;;;;;;;;;;15.95;56.19;100581.13;5380127;26;1176;-58
2024/04/26 12:21:04;;;;;;;;;;;;;;;15.87;56.27;100582.50;5381943;26;1173;-62
2024/04/26 12:23:30;;;;;;;;;;;;;;;16.77;55.76;100584.59;5386886;26;1901;-61
2024/04/26 12:25:56;;;;;;;;;;;;;;;17.75;53.38;100586.03;5386427;26;1546;-58
2024/04/26 12:28:22;;;;;;;;;;;;;;;16.84;55.42;100588.97;5387293;26;1056;-59
2024/04/26 12:30:47;;;;;;;;;;;;;;;16.48;56.27;100589.03;5387519;26;1234;-59
2024/04/26 12:33:13;;;;;;;;;;;;;;;16.32;56.18;100594.56;5387052;26;1140;-59
2024/04/26 12:35:38;;;;;;;;;;;;;;;16.24;55.97;100592.38;5386977;26;1463;-58
2024/04/26 12:38:04;;;;;;;;;;;;;;;16.06;56.16;100597.31;5385929;26;1652;-60
2024/04/26 12:40:31;;;;;;;;;;;;;;;16.52;56.08;100593.72;5384388;26;1244;-58